createdAt,value
2023-03-19T00:01:29.750Z,5.45
2023-03-19T00:03:58.684Z,5.38
2023-03-19T00:06:29.411Z,5.51
2023-03-19T00:08:58.819Z,5.28
2023-03-19T00:11:28.074Z,5.54
2023-03-19T00:13:57.203Z,5.64
2023-03-19T00:16:29.163Z,5.44
2023-03-19T00:18:58.622Z,5.51
2023-03-19T00:21:30.631Z,5.62
2023-03-19T00:24:02.291Z,5.55
2023-03-19T00:26:32.956Z,5.62
2023-03-19T00:29:03.019Z,5.51
2023-03-19T00:31:32.165Z,5.65
2023-03-19T00:34:01.555Z,5.38
2023-03-19T00:36:32.260Z,5.59
2023-03-19T00:39:01.422Z,5.44
2023-03-19T00:41:30.676Z,4.16
2023-03-19T00:44:04.141Z,4.79
2023-03-19T00:46:33.284Z,4.92
2023-03-19T00:49:02.735Z,4.43
2023-03-19T00:51:33.121Z,4.73
2023-03-19T00:54:02.276Z,4.45
2023-03-19T00:56:31.517Z,4.66
2023-03-19T00:59:00.688Z,4.23
2023-03-19T01:01:32.125Z,4.48
2023-03-19T01:04:01.300Z,4.64
2023-03-19T01:06:32.288Z,4.64
2023-03-19T01:09:01.589Z,3.95
2023-03-19T01:11:31.058Z,3.93
2023-03-19T01:14:00.234Z,4.60
2023-03-19T01:16:29.873Z,4.80
2023-03-19T01:18:59.226Z,4.91
2023-03-19T01:21:31.119Z,4.62
2023-03-19T01:24:01.799Z,3.94
2023-03-19T01:26:31.485Z,4.59
2023-03-19T01:29:12.998Z,4.77
2023-03-19T01:31:44.804Z,4.62
2023-03-19T01:34:33.922Z,4.39
2023-03-19T01:37:15.711Z,4.85
2023-03-19T01:39:47.345Z,4.08
2023-03-19T01:42:17.205Z,4.13
2023-03-19T01:45:36.113Z,4.13
2023-03-19T01:48:30.872Z,3.91
2023-03-19T01:51:07.569Z,3.73
2023-03-19T01:53:53.217Z,3.70
2023-03-19T01:56:38.776Z,3.73
2023-03-19T01:59:33.094Z,3.83
2023-03-19T02:02:31.467Z,3.73
2023-03-19T02:05:09.708Z,3.20
2023-03-19T02:07:45.128Z,3.61
2023-03-19T02:10:18.017Z,3.57
2023-03-19T02:12:48.544Z,3.52
2023-03-19T02:15:18.147Z,3.57
2023-03-19T02:17:50.582Z,3.48
2023-03-19T02:20:27.240Z,3.29
2023-03-19T02:23:06.937Z,3.17
2023-03-19T02:25:41.981Z,3.07
2023-03-19T02:28:13.002Z,3.34
2023-03-19T02:30:44.264Z,3.22
2023-03-19T02:33:16.220Z,3.18
2023-03-19T02:35:46.879Z,3.26
2023-03-19T02:38:21.628Z,3.20
2023-03-19T02:40:54.973Z,3.25
2023-03-19T02:43:25.617Z,2.96
2023-03-19T02:45:55.481Z,3.08
2023-03-19T02:48:25.683Z,3.02
2023-03-19T02:50:54.771Z,3.00
2023-03-19T02:53:24.550Z,3.02
2023-03-19T02:55:55.276Z,2.68
2023-03-19T02:58:25.923Z,2.78
2023-03-19T03:00:55.054Z,3.08
2023-03-19T03:03:24.215Z,3.15
2023-03-19T03:05:53.261Z,3.17
2023-03-19T03:08:23.052Z,3.05
2023-03-19T03:10:52.456Z,3.48
2023-03-19T03:13:21.643Z,2.84
2023-03-19T03:15:53.789Z,3.01
2023-03-19T03:18:22.765Z,3.56
2023-03-19T03:20:52.625Z,3.53
2023-03-19T03:23:22.234Z,3.57
2023-03-19T03:25:52.226Z,3.80
2023-03-19T03:28:21.238Z,3.89
2023-03-19T03:30:51.842Z,3.86
2023-03-19T03:33:20.944Z,3.46
2023-03-19T03:35:49.940Z,3.48
2023-03-19T03:38:19.637Z,3.84
2023-03-19T03:40:52.708Z,3.93
2023-03-19T03:43:23.283Z,3.88
2023-03-19T03:45:53.872Z,4.23
2023-03-19T03:48:23.844Z,4.21
2023-03-19T03:50:52.948Z,4.33
2023-03-19T03:53:26.932Z,4.31
2023-03-19T03:55:56.305Z,4.36
2023-03-19T03:58:28.101Z,4.44
2023-03-19T04:00:58.621Z,4.44
2023-03-19T04:03:28.172Z,4.39
2023-03-19T04:05:57.722Z,4.03
2023-03-19T04:08:27.393Z,4.25
2023-03-19T04:10:59.786Z,4.35
2023-03-19T04:13:29.509Z,4.61
2023-03-19T04:15:59.845Z,4.54
2023-03-19T04:18:28.960Z,4.76
2023-03-19T04:20:58.501Z,4.59
2023-03-19T04:23:27.993Z,4.70
2023-03-19T04:26:04.166Z,4.81
2023-03-19T04:28:33.288Z,4.59
2023-03-19T04:31:05.609Z,4.33
2023-03-19T04:33:37.338Z,5.05
2023-03-19T04:36:07.104Z,4.87
2023-03-19T04:38:38.363Z,4.95
2023-03-19T04:41:07.670Z,4.85
2023-03-19T04:43:39.612Z,4.88
2023-03-19T04:46:13.405Z,5.00
2023-03-19T04:48:43.067Z,4.76
2023-03-19T04:51:12.471Z,4.81
2023-03-19T04:53:42.223Z,5.03
2023-03-19T04:56:11.427Z,5.09
2023-03-19T04:58:40.608Z,5.20
2023-03-19T05:01:11.941Z,5.08
2023-03-19T05:04:02.332Z,5.18
2023-03-19T05:06:33.351Z,5.22
2023-03-19T05:09:02.793Z,5.34
2023-03-19T05:11:32.327Z,5.36
2023-03-19T05:14:13.506Z,5.10
2023-03-19T05:17:15.301Z,3.92
2023-03-19T05:20:16.827Z,4.11
2023-03-19T05:22:54.794Z,4.08
2023-03-19T05:25:31.905Z,4.27
2023-03-19T05:28:01.626Z,4.54
2023-03-19T05:30:30.965Z,5.02
2023-03-19T05:33:11.884Z,5.21
2023-03-19T05:35:46.289Z,4.93
2023-03-19T05:38:34.827Z,4.49
2023-03-19T05:41:09.704Z,4.32
2023-03-19T05:43:48.046Z,4.65
2023-03-19T05:46:34.361Z,4.89
2023-03-19T05:49:08.314Z,4.95
2023-03-19T05:51:38.099Z,5.07
2023-03-19T05:54:16.700Z,3.64
2023-03-19T05:57:07.956Z,5.39
2023-03-19T05:59:48.460Z,5.51
2023-03-19T06:02:33.191Z,6.03
2023-03-19T06:05:29.420Z,6.24
2023-03-19T06:08:04.686Z,6.29
2023-03-19T06:10:55.372Z,6.57
2023-03-19T06:13:29.348Z,6.65
2023-03-19T06:16:03.150Z,6.68
2023-03-19T06:18:36.777Z,6.45
2023-03-19T06:21:32.136Z,5.74
2023-03-19T06:24:05.160Z,6.84
2023-03-19T06:26:40.267Z,6.06
2023-03-19T06:29:19.155Z,6.12
2023-03-19T06:31:53.627Z,6.24
2023-03-19T06:34:33.420Z,6.02
2023-03-19T06:37:05.329Z,6.40
2023-03-19T06:39:35.180Z,6.45
2023-03-19T06:42:08.820Z,5.98
2023-03-19T06:44:39.418Z,6.99
2023-03-19T06:47:09.439Z,7.36
2023-03-19T06:49:47.361Z,7.67
2023-03-19T06:52:18.781Z,7.66
2023-03-19T06:54:48.664Z,7.06
2023-03-19T06:57:18.284Z,7.38
2023-03-19T06:59:48.395Z,7.82
2023-03-19T07:02:17.457Z,7.72
2023-03-19T07:04:49.964Z,7.96
2023-03-19T07:07:20.899Z,8.04
2023-03-19T07:09:53.053Z,8.32
2023-03-19T07:12:22.314Z,8.57
2023-03-19T07:14:52.737Z,8.85
2023-03-19T07:17:22.319Z,8.61
2023-03-19T07:19:52.057Z,8.87
2023-03-19T07:22:23.278Z,8.94
2023-03-19T07:24:52.652Z,8.92
2023-03-19T07:27:27.438Z,9.28
2023-03-19T07:29:56.837Z,9.28
2023-03-19T07:32:26.586Z,8.61
2023-03-19T07:34:57.076Z,8.76
2023-03-19T07:37:29.730Z,8.92
2023-03-19T07:39:58.982Z,9.17
2023-03-19T07:42:28.478Z,8.14
2023-03-19T07:45:00.110Z,7.68
2023-03-19T07:47:32.809Z,8.45
2023-03-19T07:50:02.192Z,9.50
2023-03-19T07:52:38.622Z,9.03
2023-03-19T07:55:08.756Z,7.56
2023-03-19T07:57:38.444Z,8.76
2023-03-19T08:00:09.331Z,9.37
2023-03-19T08:02:44.892Z,9.20
2023-03-19T08:05:14.019Z,9.63
2023-03-19T08:07:45.080Z,10.08
2023-03-19T08:10:14.415Z,9.60
2023-03-19T08:12:43.563Z,9.92
2023-03-19T08:15:13.884Z,10.25
2023-03-19T08:17:43.458Z,9.14
2023-03-19T08:20:16.466Z,8.34
2023-03-19T08:22:50.987Z,9.36
2023-03-19T08:25:22.507Z,9.43
2023-03-19T08:27:55.136Z,10.60
2023-03-19T08:30:25.371Z,10.45
2023-03-19T08:32:54.652Z,10.17
2023-03-19T08:35:45.789Z,10.26
2023-03-19T08:38:17.172Z,10.19
2023-03-19T08:40:46.572Z,10.43
2023-03-19T08:43:18.170Z,11.13
2023-03-19T08:45:47.701Z,11.56
2023-03-19T08:48:19.309Z,11.72
2023-03-19T08:50:55.168Z,11.26
2023-03-19T08:53:28.647Z,11.68
2023-03-19T08:55:58.923Z,11.74
2023-03-19T08:58:29.187Z,10.57
2023-03-19T09:01:03.122Z,10.37
2023-03-19T09:03:37.804Z,9.83
2023-03-19T09:06:17.997Z,9.47
2023-03-19T09:08:52.770Z,10.60
2023-03-19T09:11:24.495Z,12.13
2023-03-19T09:13:56.802Z,11.82
2023-03-19T09:16:29.460Z,12.71
2023-03-19T09:18:59.874Z,11.22
2023-03-19T09:21:29.422Z,12.29
2023-03-19T09:24:00.212Z,12.44
2023-03-19T09:26:35.132Z,12.35
2023-03-19T09:29:05.101Z,11.86
2023-03-19T09:31:48.938Z,11.97
2023-03-19T09:34:21.335Z,12.82
2023-03-19T09:36:50.499Z,11.04
2023-03-19T09:39:24.136Z,11.79
2023-03-19T09:42:06.557Z,12.52
2023-03-19T09:44:39.677Z,11.89
2023-03-19T09:47:25.961Z,10.81
2023-03-19T09:49:59.379Z,12.01
2023-03-19T09:52:48.133Z,12.43
2023-03-19T09:55:35.299Z,11.98
2023-03-19T09:58:17.695Z,12.38
2023-03-19T10:00:52.769Z,12.17
2023-03-19T10:04:05.504Z,12.54
2023-03-19T10:06:36.957Z,13.15
2023-03-19T10:09:29.398Z,12.00
2023-03-19T10:12:19.725Z,12.70
2023-03-19T10:15:07.503Z,13.00
2023-03-19T10:17:42.489Z,13.46
2023-03-19T10:20:21.596Z,11.93
2023-03-19T10:23:00.758Z,14.57
2023-03-19T10:25:34.132Z,17.21
2023-03-19T10:28:18.097Z,16.13
2023-03-19T10:31:04.348Z,17.42
2023-03-19T10:33:47.616Z,18.46
2023-03-19T10:36:23.935Z,19.41
2023-03-19T10:38:53.552Z,17.92
2023-03-19T10:41:33.106Z,19.31
2023-03-19T10:44:11.828Z,19.40
2023-03-19T10:46:46.761Z,20.28
2023-03-19T10:49:19.377Z,20.57
2023-03-19T10:55:30.313Z,21.45
2023-03-19T10:58:07.874Z,22.60
2023-03-19T11:00:42.692Z,23.07
2023-03-19T11:03:31.303Z,24.04
2023-03-19T11:06:25.033Z,23.37
2023-03-19T11:08:57.335Z,23.83
2023-03-19T11:11:28.775Z,23.99
2023-03-19T11:13:57.978Z,24.40
2023-03-19T11:16:29.647Z,18.77
2023-03-19T11:18:58.951Z,23.45
2023-03-19T11:21:33.117Z,23.23
2023-03-19T11:24:14.327Z,23.66
2023-03-19T11:26:55.222Z,24.32
2023-03-19T11:29:27.831Z,26.19
2023-03-19T11:32:21.195Z,25.96
2023-03-19T11:34:59.751Z,23.80
2023-03-19T11:37:40.764Z,24.75
2023-03-19T11:40:15.790Z,24.95
2023-03-19T11:43:18.673Z,24.08
2023-03-19T11:45:59.695Z,25.01
2023-03-19T11:48:45.597Z,26.05
2023-03-19T11:51:21.613Z,23.98
2023-03-19T11:54:05.447Z,27.22
2023-03-19T11:56:43.912Z,23.05
2023-03-19T11:59:33.587Z,25.30
2023-03-19T12:02:32.339Z,25.39
2023-03-19T12:05:18.943Z,28.40
2023-03-19T12:08:01.092Z,27.22
2023-03-19T12:10:39.489Z,27.38
2023-03-19T12:13:21.506Z,28.41
2023-03-19T12:16:02.227Z,26.80
2023-03-19T12:18:53.135Z,28.27
2023-03-19T12:21:30.568Z,28.43
2023-03-19T12:24:05.447Z,26.61
2023-03-19T12:26:53.553Z,28.28
2023-03-19T12:29:34.665Z,27.30
2023-03-19T12:32:18.444Z,28.08
2023-03-19T12:34:51.931Z,29.40
2023-03-19T12:37:30.742Z,30.33
2023-03-19T12:40:16.660Z,27.96
2023-03-19T12:42:45.725Z,27.98
2023-03-19T12:45:26.520Z,28.35
2023-03-19T12:48:07.762Z,28.73
2023-03-19T12:50:40.883Z,29.54
2023-03-19T12:53:26.667Z,28.77
2023-03-19T12:56:03.866Z,28.07
2023-03-19T12:58:49.953Z,28.79
2023-03-19T13:01:25.941Z,29.17
2023-03-19T13:04:02.991Z,27.15
2023-03-19T13:06:37.143Z,28.07
2023-03-19T13:09:17.187Z,28.77
2023-03-19T13:11:51.220Z,28.67
2023-03-19T13:14:26.762Z,28.11
2023-03-19T13:17:02.269Z,27.67
2023-03-19T13:19:41.687Z,28.29
2023-03-19T13:22:19.692Z,29.02
2023-03-19T13:24:52.328Z,27.21
2023-03-19T13:27:23.235Z,27.70
2023-03-19T13:30:20.596Z,29.44
2023-03-19T13:32:52.042Z,29.56
2023-03-19T13:35:39.026Z,28.59
2023-03-19T13:38:19.086Z,27.45
2023-03-19T13:40:56.104Z,29.38
2023-03-19T13:43:52.858Z,29.40
2023-03-19T13:46:41.816Z,29.54
2023-03-19T13:49:26.887Z,26.20
2023-03-19T13:52:04.206Z,27.96
2023-03-19T13:54:39.661Z,28.22
2023-03-19T13:57:41.294Z,28.87
2023-03-19T14:01:01.558Z,28.64
2023-03-19T14:03:36.021Z,23.94
2023-03-19T14:06:05.822Z,27.08
2023-03-19T14:08:47.601Z,27.39
2023-03-19T14:11:25.075Z,28.08
2023-03-19T14:13:57.112Z,27.76
2023-03-19T14:16:32.977Z,28.00
2023-03-19T14:19:05.038Z,27.86
2023-03-19T14:21:46.841Z,27.73
2023-03-19T14:27:32.494Z,26.09
2023-03-19T14:30:12.169Z,26.42
2023-03-19T14:32:48.192Z,25.95
2023-03-19T14:35:20.440Z,26.06
2023-03-19T14:37:53.424Z,25.27
2023-03-19T14:40:25.046Z,24.49
2023-03-19T14:43:10.425Z,23.36
2023-03-19T14:45:56.266Z,22.59
2023-03-19T14:48:57.140Z,20.83
2023-03-19T14:51:55.701Z,21.98
2023-03-19T14:54:36.454Z,21.23
2023-03-19T14:57:17.171Z,20.50
2023-03-19T14:59:47.031Z,20.42
2023-03-19T15:02:34.551Z,18.85
2023-03-19T15:05:10.332Z,19.63
2023-03-19T15:07:44.670Z,19.94
2023-03-19T15:10:19.396Z,20.16
2023-03-19T15:13:06.200Z,19.61
2023-03-19T15:16:00.824Z,17.91
2023-03-19T15:18:32.279Z,16.06
2023-03-19T15:21:03.870Z,15.17
2023-03-19T15:23:33.895Z,14.79
2023-03-19T15:26:08.681Z,14.68
2023-03-19T15:28:49.366Z,13.78
2023-03-19T15:31:32.071Z,13.85
2023-03-19T15:34:28.204Z,13.95
2023-03-19T15:37:02.451Z,13.84
2023-03-19T15:39:36.814Z,13.18
2023-03-19T15:42:09.705Z,13.11
2023-03-19T15:44:48.052Z,11.74
2023-03-19T15:47:24.996Z,12.23
2023-03-19T15:50:08.179Z,12.08
2023-03-19T15:52:40.570Z,11.87
2023-03-19T15:55:10.766Z,11.43
2023-03-19T15:57:41.671Z,11.70
2023-03-19T16:00:13.224Z,11.40
2023-03-19T16:02:44.524Z,11.24
2023-03-19T16:05:28.953Z,11.41
2023-03-19T16:08:01.659Z,11.19
2023-03-19T16:10:51.613Z,11.21
2023-03-19T16:13:31.827Z,10.60
2023-03-19T16:16:08.143Z,10.62
2023-03-19T16:18:50.621Z,10.98
2023-03-19T16:21:24.419Z,11.04
2023-03-19T16:23:59.667Z,10.71
2023-03-19T16:26:41.896Z,10.54
2023-03-19T16:29:21.437Z,10.48
2023-03-19T16:32:01.855Z,10.53
2023-03-19T16:34:42.502Z,10.31
2023-03-19T16:37:35.303Z,10.45
2023-03-19T16:40:41.360Z,10.56
2023-03-19T16:43:28.972Z,10.37
2023-03-19T16:46:08.618Z,10.24
2023-03-19T16:48:39.988Z,10.12
2023-03-19T16:51:17.942Z,10.25
2023-03-19T16:53:50.784Z,10.18
2023-03-19T16:56:21.412Z,10.12
2023-03-19T16:58:50.799Z,9.64
2023-03-19T17:01:23.607Z,9.59
2023-03-19T17:03:54.024Z,9.83
2023-03-19T17:06:23.939Z,9.75
2023-03-19T17:08:54.824Z,9.12
2023-03-19T17:11:29.867Z,9.31
2023-03-19T17:14:00.828Z,9.12
2023-03-19T17:16:31.940Z,9.16
2023-03-19T17:19:08.828Z,8.85
2023-03-19T17:21:38.398Z,9.01
2023-03-19T17:24:23.026Z,8.86
2023-03-19T17:26:53.661Z,8.84
2023-03-19T17:29:26.285Z,8.97
2023-03-19T17:31:57.716Z,8.86
2023-03-19T17:34:32.191Z,8.33
2023-03-19T17:37:03.140Z,8.91
2023-03-19T17:39:42.162Z,8.96
2023-03-19T17:42:20.230Z,8.99
2023-03-19T17:44:50.952Z,8.78
2023-03-19T17:47:23.814Z,9.08
2023-03-19T17:49:57.522Z,8.90
2023-03-19T17:52:30.856Z,8.69
2023-03-19T17:55:17.543Z,7.91
2023-03-19T17:57:51.744Z,7.93
2023-03-19T18:00:35.607Z,7.96
2023-03-19T18:03:06.431Z,7.85
2023-03-19T18:05:36.088Z,7.70
2023-03-19T18:08:11.997Z,8.69
2023-03-19T18:10:47.650Z,8.29
2023-03-19T18:13:18.320Z,8.52
2023-03-19T18:15:49.022Z,8.46
2023-03-19T18:18:27.530Z,8.33
2023-03-19T18:20:59.490Z,8.38
2023-03-19T18:23:29.913Z,7.92
2023-03-19T18:26:00.842Z,8.18
2023-03-19T18:28:30.934Z,8.20
2023-03-19T18:31:11.242Z,8.08
2023-03-19T18:33:41.088Z,7.87
2023-03-19T18:36:15.804Z,8.21
2023-03-19T18:38:48.335Z,8.17
2023-03-19T18:41:34.904Z,8.03
2023-03-19T18:44:53.592Z,8.02
2023-03-19T18:50:52.537Z,7.11
2023-03-19T18:53:36.911Z,6.61
2023-03-19T18:56:27.766Z,5.87
2023-03-19T18:59:11.565Z,7.27
2023-03-19T19:01:45.032Z,7.35
2023-03-19T19:04:17.918Z,5.90
2023-03-19T19:06:49.561Z,7.13
2023-03-19T19:09:19.794Z,7.12
2023-03-19T19:11:54.620Z,6.93
2023-03-19T19:14:30.330Z,7.20
2023-03-19T19:17:03.008Z,6.91
2023-03-19T19:19:32.571Z,7.23
2023-03-19T19:22:02.693Z,7.08
2023-03-19T19:24:33.708Z,7.22
2023-03-19T19:27:07.398Z,6.69
2023-03-19T19:29:38.457Z,7.33
2023-03-19T19:32:21.278Z,7.20
2023-03-19T19:34:51.953Z,6.97
2023-03-19T19:37:23.300Z,7.40
2023-03-19T19:39:53.558Z,7.39
2023-03-19T19:42:24.534Z,7.43
2023-03-19T19:44:58.941Z,7.12
2023-03-19T19:47:29.701Z,7.12
2023-03-19T19:50:02.356Z,6.96
2023-03-19T19:52:32.867Z,7.17
2023-03-19T19:55:02.414Z,7.33
2023-03-19T19:57:31.826Z,7.30
2023-03-19T20:00:02.613Z,7.29
2023-03-19T20:02:49.155Z,6.90
2023-03-19T20:05:21.866Z,7.06
2023-03-19T20:07:52.535Z,6.96
2023-03-19T20:10:22.897Z,6.71
2023-03-19T20:12:55.142Z,7.16
2023-03-19T20:15:27.499Z,7.09
2023-03-19T20:17:59.636Z,7.02
2023-03-19T20:20:32.870Z,6.77
2023-03-19T20:23:03.451Z,6.80
2023-03-19T20:25:34.334Z,6.83
2023-03-19T20:28:05.648Z,6.93
2023-03-19T20:30:38.857Z,6.61
2023-03-19T20:33:12.670Z,6.25
2023-03-19T20:35:41.989Z,6.42
2023-03-19T20:38:14.715Z,6.54
2023-03-19T20:40:46.679Z,6.71
2023-03-19T20:43:34.427Z,5.94
2023-03-19T20:46:22.684Z,6.08
2023-03-19T20:48:52.492Z,6.18
2023-03-19T20:51:24.883Z,6.36
2023-03-19T20:54:05.145Z,6.38
2023-03-19T20:56:38.186Z,6.32
2023-03-19T20:59:07.426Z,6.29
2023-03-19T21:01:38.130Z,6.08
2023-03-19T21:04:20.827Z,6.04
2023-03-19T21:06:53.874Z,6.23
2023-03-19T21:09:25.934Z,6.15
2023-03-19T21:12:03.701Z,6.09
2023-03-19T21:14:41.286Z,6.33
2023-03-19T21:17:11.999Z,6.38
2023-03-19T21:19:44.478Z,6.24
2023-03-19T21:22:21.771Z,6.27
2023-03-19T21:25:04.491Z,5.95
2023-03-19T21:27:52.739Z,5.70
2023-03-19T21:30:32.553Z,5.49
2023-03-19T21:33:11.025Z,5.83
2023-03-19T21:35:44.898Z,6.12
2023-03-19T21:38:17.484Z,5.76
2023-03-19T21:41:05.230Z,5.95
2023-03-19T21:44:08.140Z,4.80
2023-03-19T21:47:16.495Z,5.08
2023-03-19T21:49:53.435Z,4.71
2023-03-19T21:52:22.897Z,5.78
2023-03-19T21:54:52.450Z,5.83
2023-03-19T21:57:22.180Z,5.73
2023-03-19T22:00:02.934Z,5.00
2023-03-19T22:02:42.654Z,4.34
2023-03-19T22:05:25.404Z,4.97
2023-03-19T22:08:02.030Z,4.77
2023-03-19T22:10:33.825Z,5.14
2023-03-19T22:13:05.138Z,5.15
2023-03-19T22:15:41.489Z,4.24
2023-03-19T22:18:15.988Z,5.40
2023-03-19T22:20:51.926Z,5.21
2023-03-19T22:23:26.445Z,4.56
2023-03-19T22:26:03.938Z,5.70
2023-03-19T22:28:36.585Z,4.27
2023-03-19T22:31:08.345Z,4.73
2023-03-19T22:33:39.613Z,5.17
2023-03-19T22:36:15.096Z,4.48
2023-03-19T22:38:47.609Z,4.90
2023-03-19T22:41:24.416Z,4.08
2023-03-19T22:44:00.110Z,4.92
2023-03-19T22:46:45.882Z,4.47
2023-03-19T22:49:33.246Z,4.69
2023-03-19T22:52:07.295Z,5.42
2023-03-19T22:54:37.565Z,4.98
2023-03-19T22:57:09.058Z,5.46
2023-03-19T22:59:38.263Z,5.24
2023-03-19T23:02:18.752Z,5.26
2023-03-19T23:04:50.962Z,5.26
2023-03-19T23:07:23.667Z,4.81
2023-03-19T23:09:57.916Z,4.38
2023-03-19T23:12:41.811Z,5.38
2023-03-19T23:15:16.971Z,4.70
2023-03-19T23:17:52.712Z,3.96
2023-03-19T23:20:27.642Z,5.40
2023-03-19T23:23:01.331Z,3.51
2023-03-19T23:25:32.786Z,4.56
2023-03-19T23:28:05.089Z,4.14
2023-03-19T23:30:42.374Z,3.41
2023-03-19T23:33:14.139Z,3.70
2023-03-19T23:35:45.840Z,3.59
2023-03-19T23:38:19.571Z,3.38
2023-03-19T23:40:51.180Z,4.97
2023-03-19T23:43:24.897Z,3.08
2023-03-19T23:45:58.607Z,3.74
2023-03-19T23:48:39.956Z,4.18
2023-03-19T23:51:15.442Z,4.27
2023-03-19T23:53:53.736Z,3.41
2023-03-19T23:56:30.930Z,3.18
2023-03-19T23:59:01.954Z,3.73
